sensor_id;sensor_type;location;lat;lon;timestamp;P1;durP1;ratioP1;P2;durP2;ratioP2
40939;SDS011;26666;50.156;7.700;2022-08-19T00:00:45;10.10;;;6.55;;
40939;SDS011;26666;50.156;7.700;2022-08-19T00:05:47;12.68;;;6.68;;
40939;SDS011;26666;50.156;7.700;2022-08-19T00:10:48;12.40;;;7.22;;
40939;SDS011;26666;50.156;7.700;2022-08-19T00:15:49;11.77;;;7.45;;
40939;SDS011;26666;50.156;7.700;2022-08-19T00:20:51;10.95;;;6.22;;
40939;SDS011;26666;50.156;7.700;2022-08-19T00:25:53;8.90;;;6.63;;
40939;SDS011;26666;50.156;7.700;2022-08-19T00:30:55;14.52;;;7.40;;
40939;SDS011;26666;50.156;7.700;2022-08-19T00:35:56;9.02;;;6.30;;
40939;SDS011;26666;50.156;7.700;2022-08-19T00:40:58;12.45;;;6.95;;
40939;SDS011;26666;50.156;7.700;2022-08-19T00:45:59;10.10;;;6.20;;
40939;SDS011;26666;50.156;7.700;2022-08-19T00:51:01;10.68;;;7.30;;
40939;SDS011;26666;50.156;7.700;2022-08-19T00:56:03;15.25;;;7.38;;
40939;SDS011;26666;50.156;7.700;2022-08-19T01:01:05;11.32;;;7.07;;
40939;SDS011;26666;50.156;7.700;2022-08-19T01:06:06;11.43;;;6.45;;
40939;SDS011;26666;50.156;7.700;2022-08-19T01:11:08;10.98;;;6.28;;
40939;SDS011;26666;50.156;7.700;2022-08-19T01:16:11;10.10;;;6.45;;
40939;SDS011;26666;50.156;7.700;2022-08-19T01:26:25;10.48;;;6.55;;
40939;SDS011;26666;50.156;7.700;2022-08-19T01:31:28;13.20;;;7.20;;
40939;SDS011;26666;50.156;7.700;2022-08-19T01:41:37;9.80;;;5.78;;
40939;SDS011;26666;50.156;7.700;2022-08-19T01:46:38;10.48;;;7.22;;
40939;SDS011;26666;50.156;7.700;2022-08-19T01:51:40;6.57;;;4.93;;
40939;SDS011;26666;50.156;7.700;2022-08-19T01:56:42;8.27;;;6.05;;
40939;SDS011;26666;50.156;7.700;2022-08-19T02:01:43;10.18;;;6.72;;
40939;SDS011;26666;50.156;7.700;2022-08-19T02:06:45;10.77;;;6.13;;
40939;SDS011;26666;50.156;7.700;2022-08-19T02:11:46;7.07;;;5.30;;
40939;SDS011;26666;50.156;7.700;2022-08-19T02:16:48;8.68;;;5.97;;
40939;SDS011;26666;50.156;7.700;2022-08-19T02:21:49;10.38;;;5.90;;
40939;SDS011;26666;50.156;7.700;2022-08-19T02:26:51;12.88;;;6.18;;
40939;SDS011;26666;50.156;7.700;2022-08-19T02:31:52;7.70;;;5.45;;
40939;SDS011;26666;50.156;7.700;2022-08-19T02:36:54;11.23;;;6.85;;
40939;SDS011;26666;50.156;7.700;2022-08-19T02:41:56;8.95;;;5.57;;
40939;SDS011;26666;50.156;7.700;2022-08-19T02:46:57;9.63;;;5.38;;
40939;SDS011;26666;50.156;7.700;2022-08-19T02:51:59;8.35;;;4.40;;
40939;SDS011;26666;50.156;7.700;2022-08-19T02:57:00;8.90;;;5.22;;
40939;SDS011;26666;50.156;7.700;2022-08-19T03:02:02;8.80;;;4.75;;
40939;SDS011;26666;50.156;7.700;2022-08-19T03:07:03;10.82;;;5.10;;
40939;SDS011;26666;50.156;7.700;2022-08-19T03:12:11;6.93;;;4.13;;
40939;SDS011;26666;50.156;7.700;2022-08-19T03:17:13;8.00;;;4.15;;
40939;SDS011;26666;50.156;7.700;2022-08-19T03:22:14;8.55;;;4.97;;
40939;SDS011;26666;50.156;7.700;2022-08-19T03:27:16;5.63;;;3.72;;
40939;SDS011;26666;50.156;7.700;2022-08-19T03:32:18;5.72;;;4.10;;
40939;SDS011;26666;50.156;7.700;2022-08-19T03:37:33;7.22;;;3.65;;
40939;SDS011;26666;50.156;7.700;2022-08-19T03:42:35;4.35;;;3.42;;
40939;SDS011;26666;50.156;7.700;2022-08-19T03:47:57;6.32;;;3.17;;
40939;SDS011;26666;50.156;7.700;2022-08-19T03:52:59;7.88;;;3.38;;
40939;SDS011;26666;50.156;7.700;2022-08-19T03:58:00;6.03;;;3.58;;
40939;SDS011;26666;50.156;7.700;2022-08-19T04:03:02;6.38;;;3.83;;
40939;SDS011;26666;50.156;7.700;2022-08-19T04:08:04;4.47;;;3.28;;
40939;SDS011;26666;50.156;7.700;2022-08-19T04:13:06;7.60;;;3.67;;
40939;SDS011;26666;50.156;7.700;2022-08-19T04:18:10;7.68;;;3.65;;
40939;SDS011;26666;50.156;7.700;2022-08-19T04:23:12;12.57;;;3.67;;
40939;SDS011;26666;50.156;7.700;2022-08-19T04:28:15;8.23;;;4.15;;
40939;SDS011;26666;50.156;7.700;2022-08-19T04:33:19;9.57;;;4.70;;
40939;SDS011;26666;50.156;7.700;2022-08-19T04:38:28;6.68;;;3.90;;
40939;SDS011;26666;50.156;7.700;2022-08-19T04:43:30;8.57;;;3.85;;
40939;SDS011;26666;50.156;7.700;2022-08-19T04:48:33;6.55;;;4.07;;
40939;SDS011;26666;50.156;7.700;2022-08-19T04:53:36;8.45;;;4.35;;
40939;SDS011;26666;50.156;7.700;2022-08-19T04:58:39;4.55;;;3.90;;
40939;SDS011;26666;50.156;7.700;2022-08-19T05:03:43;5.20;;;3.67;;
40939;SDS011;26666;50.156;7.700;2022-08-19T05:08:44;5.80;;;3.63;;
40939;SDS011;26666;50.156;7.700;2022-08-19T05:13:47;5.72;;;3.50;;
40939;SDS011;26666;50.156;7.700;2022-08-19T05:18:50;5.97;;;4.00;;
40939;SDS011;26666;50.156;7.700;2022-08-19T05:23:52;7.22;;;4.35;;
40939;SDS011;26666;50.156;7.700;2022-08-19T05:28:54;6.38;;;3.42;;
40939;SDS011;26666;50.156;7.700;2022-08-19T05:33:56;6.03;;;4.15;;
40939;SDS011;26666;50.156;7.700;2022-08-19T05:38:58;10.40;;;4.70;;
40939;SDS011;26666;50.156;7.700;2022-08-19T05:44:04;6.20;;;3.92;;
40939;SDS011;26666;50.156;7.700;2022-08-19T05:49:06;6.13;;;3.40;;
40939;SDS011;26666;50.156;7.700;2022-08-19T05:54:08;4.03;;;3.30;;
40939;SDS011;26666;50.156;7.700;2022-08-19T05:59:10;4.93;;;3.65;;
40939;SDS011;26666;50.156;7.700;2022-08-19T06:04:12;3.97;;;2.75;;
40939;SDS011;26666;50.156;7.700;2022-08-19T06:09:14;5.60;;;3.65;;
40939;SDS011;26666;50.156;7.700;2022-08-19T06:14:17;5.18;;;3.88;;
40939;SDS011;26666;50.156;7.700;2022-08-19T06:19:28;5.50;;;2.92;;
40939;SDS011;26666;50.156;7.700;2022-08-19T06:24:31;6.13;;;4.57;;
40939;SDS011;26666;50.156;7.700;2022-08-19T06:29:33;6.82;;;4.05;;
40939;SDS011;26666;50.156;7.700;2022-08-19T06:34:34;7.13;;;4.40;;
40939;SDS011;26666;50.156;7.700;2022-08-19T06:39:37;5.63;;;4.20;;
40939;SDS011;26666;50.156;7.700;2022-08-19T06:44:41;9.70;;;3.83;;
40939;SDS011;26666;50.156;7.700;2022-08-19T06:49:49;7.80;;;3.63;;
40939;SDS011;26666;50.156;7.700;2022-08-19T06:54:50;7.28;;;3.80;;
40939;SDS011;26666;50.156;7.700;2022-08-19T06:59:56;4.18;;;3.53;;
40939;SDS011;26666;50.156;7.700;2022-08-19T07:04:58;5.32;;;4.10;;
40939;SDS011;26666;50.156;7.700;2022-08-19T07:10:01;8.23;;;3.50;;
40939;SDS011;26666;50.156;7.700;2022-08-19T07:15:06;6.95;;;4.22;;
40939;SDS011;26666;50.156;7.700;2022-08-19T07:20:08;5.90;;;3.40;;
40939;SDS011;26666;50.156;7.700;2022-08-19T07:25:11;8.30;;;4.40;;
40939;SDS011;26666;50.156;7.700;2022-08-19T07:30:12;6.45;;;3.70;;
40939;SDS011;26666;50.156;7.700;2022-08-19T07:35:14;6.35;;;4.22;;
40939;SDS011;26666;50.156;7.700;2022-08-19T07:40:16;11.70;;;6.13;;
40939;SDS011;26666;50.156;7.700;2022-08-19T07:45:17;7.93;;;5.15;;
40939;SDS011;26666;50.156;7.700;2022-08-19T07:50:19;5.68;;;4.35;;
40939;SDS011;26666;50.156;7.700;2022-08-19T07:55:23;7.88;;;4.68;;
40939;SDS011;26666;50.156;7.700;2022-08-19T08:00:43;7.60;;;5.30;;
40939;SDS011;26666;50.156;7.700;2022-08-19T08:05:47;7.22;;;5.88;;
40939;SDS011;26666;50.156;7.700;2022-08-19T08:10:48;7.30;;;4.85;;
40939;SDS011;26666;50.156;7.700;2022-08-19T08:15:53;8.57;;;4.80;;
40939;SDS011;26666;50.156;7.700;2022-08-19T08:20:56;7.95;;;5.93;;
40939;SDS011;26666;50.156;7.700;2022-08-19T08:25:59;6.70;;;4.23;;
40939;SDS011;26666;50.156;7.700;2022-08-19T08:31:02;7.45;;;6.00;;
40939;SDS011;26666;50.156;7.700;2022-08-19T08:36:10;8.55;;;5.28;;
40939;SDS011;26666;50.156;7.700;2022-08-19T08:41:16;9.60;;;6.38;;
40939;SDS011;26666;50.156;7.700;2022-08-19T08:51:37;15.77;;;8.43;;
40939;SDS011;26666;50.156;7.700;2022-08-19T08:56:43;8.85;;;5.82;;
40939;SDS011;26666;50.156;7.700;2022-08-19T09:01:46;14.65;;;6.38;;
40939;SDS011;26666;50.156;7.700;2022-08-19T09:17:28;10.52;;;4.97;;
40939;SDS011;26666;50.156;7.700;2022-08-19T09:27:33;10.25;;;4.50;;
40939;SDS011;26666;50.156;7.700;2022-08-19T09:32:43;5.97;;;3.28;;
40939;SDS011;26666;50.156;7.700;2022-08-19T09:37:44;10.10;;;4.20;;
40939;SDS011;26666;50.156;7.700;2022-08-19T09:42:46;5.30;;;3.85;;
40939;SDS011;26666;50.156;7.700;2022-08-19T09:47:51;8.20;;;3.75;;
40939;SDS011;26666;50.156;7.700;2022-08-19T09:52:54;6.50;;;3.53;;
40939;SDS011;26666;50.156;7.700;2022-08-19T09:58:01;5.53;;;3.35;;
40939;SDS011;26666;50.156;7.700;2022-08-19T10:03:03;3.80;;;2.83;;
40939;SDS011;26666;50.156;7.700;2022-08-19T10:13:15;8.65;;;4.72;;
40939;SDS011;26666;50.156;7.700;2022-08-19T10:18:19;5.50;;;3.42;;
40939;SDS011;26666;50.156;7.700;2022-08-19T10:23:22;4.15;;;3.05;;
40939;SDS011;26666;50.156;7.700;2022-08-19T10:28:23;5.03;;;2.85;;
40939;SDS011;26666;50.156;7.700;2022-08-19T10:33:25;5.53;;;3.47;;
40939;SDS011;26666;50.156;7.700;2022-08-19T10:38:48;3.33;;;2.63;;
40939;SDS011;26666;50.156;7.700;2022-08-19T10:43:58;5.50;;;3.20;;
40939;SDS011;26666;50.156;7.700;2022-08-19T10:49:05;5.60;;;2.65;;
40939;SDS011;26666;50.156;7.700;2022-08-19T10:54:06;3.75;;;2.97;;
40939;SDS011;26666;50.156;7.700;2022-08-19T10:59:13;4.90;;;3.15;;
40939;SDS011;26666;50.156;7.700;2022-08-19T11:04:15;3.20;;;1.80;;
40939;SDS011;26666;50.156;7.700;2022-08-19T11:09:18;4.35;;;2.25;;
40939;SDS011;26666;50.156;7.700;2022-08-19T11:14:21;2.13;;;1.52;;
40939;SDS011;26666;50.156;7.700;2022-08-19T11:19:26;2.08;;;1.65;;
40939;SDS011;26666;50.156;7.700;2022-08-19T11:24:28;2.28;;;2.10;;
40939;SDS011;26666;50.156;7.700;2022-08-19T11:29:31;2.90;;;2.35;;
40939;SDS011;26666;50.156;7.700;2022-08-19T11:34:33;4.78;;;2.40;;
40939;SDS011;26666;50.156;7.700;2022-08-19T11:39:35;3.13;;;2.42;;
40939;SDS011;26666;50.156;7.700;2022-08-19T11:44:37;4.70;;;2.85;;
40939;SDS011;26666;50.156;7.700;2022-08-19T11:49:39;4.63;;;1.95;;
40939;SDS011;26666;50.156;7.700;2022-08-19T11:54:40;3.60;;;2.55;;
40939;SDS011;26666;50.156;7.700;2022-08-19T11:59:42;4.40;;;2.45;;
40939;SDS011;26666;50.156;7.700;2022-08-19T12:04:49;4.20;;;2.80;;
40939;SDS011;26666;50.156;7.700;2022-08-19T12:09:51;5.15;;;2.72;;
40939;SDS011;26666;50.156;7.700;2022-08-19T12:14:53;5.30;;;2.35;;
40939;SDS011;26666;50.156;7.700;2022-08-19T12:19:54;4.78;;;3.60;;
40939;SDS011;26666;50.156;7.700;2022-08-19T12:24:56;4.30;;;2.42;;
40939;SDS011;26666;50.156;7.700;2022-08-19T12:29:57;7.03;;;3.35;;
40939;SDS011;26666;50.156;7.700;2022-08-19T12:34:59;9.82;;;3.50;;
40939;SDS011;26666;50.156;7.700;2022-08-19T12:40:00;4.20;;;2.22;;
40939;SDS011;26666;50.156;7.700;2022-08-19T12:45:03;5.78;;;2.53;;
40939;SDS011;26666;50.156;7.700;2022-08-19T12:50:08;2.55;;;2.35;;
40939;SDS011;26666;50.156;7.700;2022-08-19T12:55:10;4.35;;;2.13;;
40939;SDS011;26666;50.156;7.700;2022-08-19T13:00:13;6.25;;;2.50;;
40939;SDS011;26666;50.156;7.700;2022-08-19T13:05:22;6.78;;;2.33;;
40939;SDS011;26666;50.156;7.700;2022-08-19T13:10:27;5.75;;;3.33;;
40939;SDS011;26666;50.156;7.700;2022-08-19T13:15:34;5.35;;;2.63;;
40939;SDS011;26666;50.156;7.700;2022-08-19T13:20:38;12.50;;;3.77;;
40939;SDS011;26666;50.156;7.700;2022-08-19T13:25:40;6.78;;;3.63;;
40939;SDS011;26666;50.156;7.700;2022-08-19T13:30:41;4.43;;;3.38;;
40939;SDS011;26666;50.156;7.700;2022-08-19T13:35:49;4.32;;;2.90;;
40939;SDS011;26666;50.156;7.700;2022-08-19T13:40:52;4.20;;;3.30;;
40939;SDS011;26666;50.156;7.700;2022-08-19T13:45:54;6.68;;;3.28;;
40939;SDS011;26666;50.156;7.700;2022-08-19T13:50:56;7.47;;;3.63;;
40939;SDS011;26666;50.156;7.700;2022-08-19T13:55:58;4.30;;;2.78;;
40939;SDS011;26666;50.156;7.700;2022-08-19T14:00:59;6.65;;;2.83;;
40939;SDS011;26666;50.156;7.700;2022-08-19T14:06:01;3.63;;;3.25;;
40939;SDS011;26666;50.156;7.700;2022-08-19T14:11:02;8.02;;;2.28;;
40939;SDS011;26666;50.156;7.700;2022-08-19T14:16:07;7.10;;;3.03;;
40939;SDS011;26666;50.156;7.700;2022-08-19T14:21:14;6.20;;;2.95;;
40939;SDS011;26666;50.156;7.700;2022-08-19T14:26:18;5.80;;;3.85;;
40939;SDS011;26666;50.156;7.700;2022-08-19T14:31:21;3.93;;;2.83;;
40939;SDS011;26666;50.156;7.700;2022-08-19T14:36:26;6.15;;;3.47;;
40939;SDS011;26666;50.156;7.700;2022-08-19T14:41:28;5.22;;;2.97;;
40939;SDS011;26666;50.156;7.700;2022-08-19T14:46:29;5.03;;;3.42;;
40939;SDS011;26666;50.156;7.700;2022-08-19T14:51:31;6.43;;;3.13;;
40939;SDS011;26666;50.156;7.700;2022-08-19T14:56:33;4.65;;;2.75;;
40939;SDS011;26666;50.156;7.700;2022-08-19T15:01:34;6.07;;;3.20;;
40939;SDS011;26666;50.156;7.700;2022-08-19T15:06:36;10.82;;;2.92;;
40939;SDS011;26666;50.156;7.700;2022-08-19T15:11:38;15.75;;;3.65;;
40939;SDS011;26666;50.156;7.700;2022-08-19T15:16:40;3.22;;;2.58;;
40939;SDS011;26666;50.156;7.700;2022-08-19T15:21:41;8.57;;;3.42;;
40939;SDS011;26666;50.156;7.700;2022-08-19T15:26:43;6.63;;;3.95;;
40939;SDS011;26666;50.156;7.700;2022-08-19T15:31:44;5.57;;;3.42;;
40939;SDS011;26666;50.156;7.700;2022-08-19T15:41:51;4.55;;;3.35;;
40939;SDS011;26666;50.156;7.700;2022-08-19T15:46:53;7.22;;;2.90;;
40939;SDS011;26666;50.156;7.700;2022-08-19T15:51:54;6.13;;;2.58;;
40939;SDS011;26666;50.156;7.700;2022-08-19T15:56:56;4.50;;;3.10;;
40939;SDS011;26666;50.156;7.700;2022-08-19T16:01:58;7.88;;;3.60;;
40939;SDS011;26666;50.156;7.700;2022-08-19T16:07:00;5.53;;;3.67;;
40939;SDS011;26666;50.156;7.700;2022-08-19T16:12:03;9.13;;;3.83;;
40939;SDS011;26666;50.156;7.700;2022-08-19T16:17:05;5.75;;;3.70;;
40939;SDS011;26666;50.156;7.700;2022-08-19T16:22:07;11.98;;;5.35;;
40939;SDS011;26666;50.156;7.700;2022-08-19T16:27:08;9.65;;;4.28;;
40939;SDS011;26666;50.156;7.700;2022-08-19T16:32:10;9.82;;;4.65;;
40939;SDS011;26666;50.156;7.700;2022-08-19T16:37:12;16.65;;;4.85;;
40939;SDS011;26666;50.156;7.700;2022-08-19T16:42:14;10.65;;;5.05;;
40939;SDS011;26666;50.156;7.700;2022-08-19T16:47:15;7.97;;;4.57;;
40939;SDS011;26666;50.156;7.700;2022-08-19T16:52:17;9.52;;;3.53;;
40939;SDS011;26666;50.156;7.700;2022-08-19T16:57:19;6.10;;;3.78;;
40939;SDS011;26666;50.156;7.700;2022-08-19T17:02:21;6.18;;;3.05;;
40939;SDS011;26666;50.156;7.700;2022-08-19T17:07:22;5.18;;;2.75;;
40939;SDS011;26666;50.156;7.700;2022-08-19T17:12:25;4.60;;;3.03;;
40939;SDS011;26666;50.156;7.700;2022-08-19T17:17:32;4.40;;;3.03;;
40939;SDS011;26666;50.156;7.700;2022-08-19T17:22:34;14.02;;;3.03;;
40939;SDS011;26666;50.156;7.700;2022-08-19T17:27:36;5.50;;;3.38;;
40939;SDS011;26666;50.156;7.700;2022-08-19T17:32:37;5.82;;;2.90;;
40939;SDS011;26666;50.156;7.700;2022-08-19T17:37:39;9.55;;;3.90;;
40939;SDS011;26666;50.156;7.700;2022-08-19T17:42:40;5.95;;;3.22;;
40939;SDS011;26666;50.156;7.700;2022-08-19T17:47:42;6.60;;;3.70;;
40939;SDS011;26666;50.156;7.700;2022-08-19T17:52:43;6.50;;;3.60;;
40939;SDS011;26666;50.156;7.700;2022-08-19T17:57:45;9.15;;;3.50;;
40939;SDS011;26666;50.156;7.700;2022-08-19T18:02:54;9.43;;;4.22;;
40939;SDS011;26666;50.156;7.700;2022-08-19T18:07:57;8.88;;;3.42;;
40939;SDS011;26666;50.156;7.700;2022-08-19T18:13:00;5.95;;;2.80;;
40939;SDS011;26666;50.156;7.700;2022-08-19T18:18:01;3.60;;;2.15;;
40939;SDS011;26666;50.156;7.700;2022-08-19T18:23:15;4.45;;;1.63;;
40939;SDS011;26666;50.156;7.700;2022-08-19T18:28:36;4.97;;;1.42;;
40939;SDS011;26666;50.156;7.700;2022-08-19T18:33:39;4.32;;;1.15;;
40939;SDS011;26666;50.156;7.700;2022-08-19T18:38:44;0.63;;;0.63;;
40939;SDS011;26666;50.156;7.700;2022-08-19T18:43:46;12.98;;;1.13;;
40939;SDS011;26666;50.156;7.700;2022-08-19T18:48:48;1.88;;;0.88;;
40939;SDS011;26666;50.156;7.700;2022-08-19T18:53:49;2.30;;;1.00;;
40939;SDS011;26666;50.156;7.700;2022-08-19T18:58:51;1.23;;;0.50;;
40939;SDS011;26666;50.156;7.700;2022-08-19T19:03:53;4.70;;;0.63;;
40939;SDS011;26666;50.156;7.700;2022-08-19T19:08:55;1.45;;;0.50;;
40939;SDS011;26666;50.156;7.700;2022-08-19T19:13:58;1.13;;;0.50;;
40939;SDS011;26666;50.156;7.700;2022-08-19T19:19:01;2.95;;;0.30;;
40939;SDS011;26666;50.156;7.700;2022-08-19T19:24:02;0.73;;;0.50;;
40939;SDS011;26666;50.156;7.700;2022-08-19T19:29:04;2.83;;;0.25;;
40939;SDS011;26666;50.156;7.700;2022-08-19T19:34:06;1.33;;;0.22;;
40939;SDS011;26666;50.156;7.700;2022-08-19T19:39:27;0.60;;;0.60;;
40939;SDS011;26666;50.156;7.700;2022-08-19T19:44:47;1.77;;;0.38;;
40939;SDS011;26666;50.156;7.700;2022-08-19T19:49:50;3.55;;;0.20;;
40939;SDS011;26666;50.156;7.700;2022-08-19T19:55:13;0.70;;;0.50;;
40939;SDS011;26666;50.156;7.700;2022-08-19T20:00:16;2.50;;;0.22;;
40939;SDS011;26666;50.156;7.700;2022-08-19T20:05:18;2.55;;;0.40;;
40939;SDS011;26666;50.156;7.700;2022-08-19T20:10:20;0.90;;;0.28;;
40939;SDS011;26666;50.156;7.700;2022-08-19T20:15:22;0.75;;;0.20;;
40939;SDS011;26666;50.156;7.700;2022-08-19T20:20:24;2.40;;;0.35;;
40939;SDS011;26666;50.156;7.700;2022-08-19T20:25:26;0.43;;;0.30;;
40939;SDS011;26666;50.156;7.700;2022-08-19T20:30:28;1.17;;;0.47;;
40939;SDS011;26666;50.156;7.700;2022-08-19T20:40:35;3.28;;;0.90;;
40939;SDS011;26666;50.156;7.700;2022-08-19T20:45:37;0.20;;;0.20;;
40939;SDS011;26666;50.156;7.700;2022-08-19T20:50:38;0.32;;;0.28;;
40939;SDS011;26666;50.156;7.700;2022-08-19T20:55:44;0.20;;;0.10;;
40939;SDS011;26666;50.156;7.700;2022-08-19T21:00:48;2.88;;;0.30;;
40939;SDS011;26666;50.156;7.700;2022-08-19T21:05:51;1.45;;;0.20;;
40939;SDS011;26666;50.156;7.700;2022-08-19T21:10:53;1.67;;;0.22;;
40939;SDS011;26666;50.156;7.700;2022-08-19T21:15:56;1.13;;;0.20;;
40939;SDS011;26666;50.156;7.700;2022-08-19T21:20:58;1.65;;;0.10;;
40939;SDS011;26666;50.156;7.700;2022-08-19T21:25:59;3.78;;;0.70;;
40939;SDS011;26666;50.156;7.700;2022-08-19T21:31:02;4.38;;;0.85;;
40939;SDS011;26666;50.156;7.700;2022-08-19T21:36:05;3.95;;;0.30;;
40939;SDS011;26666;50.156;7.700;2022-08-19T21:41:07;5.30;;;0.20;;
40939;SDS011;26666;50.156;7.700;2022-08-19T21:46:09;2.97;;;0.25;;
40939;SDS011;26666;50.156;7.700;2022-08-19T21:51:10;1.27;;;0.20;;
40939;SDS011;26666;50.156;7.700;2022-08-19T21:56:12;1.85;;;0.45;;
40939;SDS011;26666;50.156;7.700;2022-08-19T22:01:13;1.52;;;0.20;;
40939;SDS011;26666;50.156;7.700;2022-08-19T22:06:15;1.50;;;0.20;;
40939;SDS011;26666;50.156;7.700;2022-08-19T22:11:16;0.52;;;0.20;;
40939;SDS011;26666;50.156;7.700;2022-08-19T22:16:19;1.73;;;0.10;;
40939;SDS011;26666;50.156;7.700;2022-08-19T22:21:21;7.32;;;0.20;;
40939;SDS011;26666;50.156;7.700;2022-08-19T22:26:40;0.20;;;0.10;;
40939;SDS011;26666;50.156;7.700;2022-08-19T22:31:42;1.38;;;0.10;;
40939;SDS011;26666;50.156;7.700;2022-08-19T22:36:44;2.03;;;0.20;;
40939;SDS011;26666;50.156;7.700;2022-08-19T22:41:46;1.50;;;0.10;;
40939;SDS011;26666;50.156;7.700;2022-08-19T22:46:48;6.20;;;0.57;;
40939;SDS011;26666;50.156;7.700;2022-08-19T22:51:50;3.20;;;0.20;;
40939;SDS011;26666;50.156;7.700;2022-08-19T22:56:51;0.75;;;0.30;;
40939;SDS011;26666;50.156;7.700;2022-08-19T23:01:53;0.38;;;0.10;;
40939;SDS011;26666;50.156;7.700;2022-08-19T23:06:54;0.32;;;0.10;;
40939;SDS011;26666;50.156;7.700;2022-08-19T23:11:56;0.13;;;0.10;;
40939;SDS011;26666;50.156;7.700;2022-08-19T23:16:57;0.25;;;0.10;;
40939;SDS011;26666;50.156;7.700;2022-08-19T23:21:59;0.35;;;0.10;;
40939;SDS011;26666;50.156;7.700;2022-08-19T23:27:01;3.95;;;0.20;;
40939;SDS011;26666;50.156;7.700;2022-08-19T23:32:03;0.20;;;0.20;;
40939;SDS011;26666;50.156;7.700;2022-08-19T23:37:05;4.78;;;0.30;;
40939;SDS011;26666;50.156;7.700;2022-08-19T23:42:07;2.28;;;0.30;;
40939;SDS011;26666;50.156;7.700;2022-08-19T23:47:10;1.88;;;0.10;;
40939;SDS011;26666;50.156;7.700;2022-08-19T23:52:12;0.30;;;0.30;;
40939;SDS011;26666;50.156;7.700;2022-08-19T23:57:13;0.20;;;0.20;;
